Tiempo atmosférico en la estación meteorológica de Liceras, Soria (1150 m.)



Fecha
DESCASC
Temp. máxima en grados centígrados (hora)
DESCASC
Temp. mínima en grados centígrados (hora)
DESCASC
Temp. media en grados centígrados
DESCASC
Racha de viento máxima en m/sg (hora)
DESCASC
Velocidad máxima media en intervalos de 10 minutos(hora)
DESCASC
Precipitaciones diarias en mm
DESCASC
Precipitaciones de 00:00 a 06:00 en mm
DESCASC
Precipitaciones de 06:00 a 12:00 en mm
DESCASC
Precipitaciones de 12:00 a 18:00 en mm
DESCASC
Precipitaciones de 18:00 a 24:00 en mm
DESCASC
06-12-2018 12 (13:50) 5.6 (05:00) 8.8 9.72 (05:50) 6.67 (05:50) 0 0 0 0 0
05-12-2018 16.8 (11:50) 4.9 (22:50) 10.8 9.44 (16:10) 6.67 (16:20) 0 0 0 0 0
04-12-2018 20.2 (12:00) 4.1 (06:50) 12.2 5 (05:00) 3.61 (05:10) 0 0 0 0 0
03-12-2018 12.9 (16:10) 2.8 (00:00) 7.8 11.11 (04:00) 8.33 (03:50) 0 0 0 0 0
02-12-2018 12.5 (15:20) 2.9 (00:00) 7.7 11.67 (15:30) 8.89 (01:10) 0 0 0 0 0
01-12-2018 8.2 (15:00) 0.5 (00:00) 4.3 13.06 (19:50) 9.44 (19:50) 0 0 0 0 0
30-11-2018 5.9 (14:40) 1.4 (00:00) 3.7 9.17 (14:40) 6.94 (05:30) 1 1 0 0 0
29-11-2018 16.7 (12:30) 0.9 (00:00) 8.8 6.39 (20:50) 3.89 (15:10) 1.2 0 0 0 1.2
28-11-2018 11.6 (12:50) 1.5 (00:00) 6.6 10 (12:00) 6.67 (14:10) 0 0 0 0 0
27-11-2018 10.2 (14:20) 0.5 (00:00) 5.3 7.22 (15:00) 5.28 (15:00) 0 0 0 0 0
25-11-2018 8.3 (05:20) 4 (00:00) 6.2 15 (05:20) 10 (13:20) 10.6 3.2 3.4 0 4
24-11-2018 9.5 (15:30) 2.1 (00:00) 5.8 13.89 (23:50) 7.78 (03:40) 0.4 0 0 0 0.4
23-11-2018 7.3 (14:50) 0.3 (00:00) 3.8 12.78 (04:50) 7.78 (05:00) 5 3.2 1.8 0 0
22-11-2018 7.9 (12:20) 1.8 (00:00) 4.9 10.56 (11:00) 6.11 (11:50) 0 0 0 0 0
21-11-2018 8.9 (14:10) 3.7 (00:00) 6.3 11.94 (10:20) 7.78 (10:20) 2 1.2 0.4 0.4 0
20-11-2018 7.6 (15:10) 4.5 (00:00) 6 15.56 (10:10) 10 (10:20) 4 0.6 1.2 0 2.2
19-11-2018 9.9 (14:10) 4.5 (00:00) 7.2 10 (04:00) 6.94 (04:20) 0.4 0 0 0 0.4
18-11-2018 9.5 (13:00) 5.7 (00:00) 7.6 13.61 (11:50) 8.33 (12:00) 1.2 0 0 0.4 0.8
17-11-2018 14.1 (16:00) 5.3 (00:00) 9.7 9.44 (12:20) 5.28 (08:30) 0 0 0 0 0
16-11-2018 14.4 (12:40) 6.6 (00:00) 10.5 8.89 (12:00) 5.83 (11:50) 0 0 0 0 0
15-11-2018 13.5 (15:20) 6.1 (00:00) 9.8 7.5 (03:00) 5 (05:30) 0 0 0 0 0
14-11-2018 14.7 (13:50) 4.1 (00:00) 9.4 8.06 (12:00) 5.28 (13:10) 0 0 0 0 0
13-11-2018 14.7 (15:10) 4.5 (00:00) 9.6 8.89 (13:10) 6.67 (13:10) 0 0 0 0 0
12-11-2018 10.9 (16:00) 6.3 (00:00) 8.6 11.94 (05:30) 7.78 (05:30) 0.2 0 0 0.2 0
11-11-2018 11.8 (15:40) 8 (00:00) 9.9 17.22 (15:00) 10 (16:30) 1.6 0 1.4 0.2 0
10-11-2018 12.9 (11:30) 7.9 (00:00) 10.4 18.61 (09:50) 10.56 (16:20) 6 0.2 0.2 5.4 0.2

Gráficas

Temp. máximas Temp. mínimas Temp. medias Precipitaciones Rachas de viento máximas Velocidades máximas media en intervalos de 10 minutos

Datos horarios

Fecha y hora oficial Temperatura (ºC) Velocidad del viento (km/h) Dirección del viento Racha (km/h) Dirección de racha Precipitación (mm) Presión (hPa) Tendencia (hPa) Humedad (%)
2018-12-09 23:00:00 4.6 8 Oeste 18 Oeste 0 -- -- 87
2018-12-09 22:00:00 4.3 10 Noroeste 18 Oeste 0 -- -- 88
2018-12-09 21:00:00 6.4 16 Oeste 19 Oeste 0 -- -- 79
2018-12-09 20:00:00 6.4 15 Noroeste 19 Noroeste 0 -- -- 79
2018-12-09 19:00:00 6.7 14 Oeste 16 Noroeste 0 -- -- 78
2018-12-09 18:00:00 6.8 13 Noroeste 15 Noroeste 0 -- -- 75
2018-12-09 17:00:00 11 12 Noroeste 27 Oeste 0 -- -- 58
2018-12-09 16:00:00 12.4 16 Noroeste 26 Noroeste 0 -- -- 55
2018-12-09 15:00:00 12.7 17 Noroeste 24 Oeste 0 -- -- 52
2018-12-09 14:00:00 12.6 16 Noroeste 27 Noroeste 0 -- -- 58
2018-12-09 13:00:00 12.7 16 Noroeste 30 Noroeste 0 -- -- 60
2018-12-09 12:00:00 12.1 19 Noroeste 28 Noroeste 0 -- -- 63
2018-12-09 11:00:00 11.5 15 Noroeste 23 Noroeste 0 -- -- 66
2018-12-09 10:00:00 9.5 14 Noroeste 27 Noroeste 0 -- -- 71
2018-12-09 09:00:00 6.4 18 Noroeste 26 Oeste 0 -- -- 79
2018-12-09 08:00:00 6.2 16 Noroeste 23 Noroeste 0 -- -- 81
2018-12-09 07:00:00 7 13 Noroeste 25 Noroeste 0 -- -- 76
2018-12-09 06:00:00 8 18 Noroeste 33 Oeste 0 -- -- 74
2018-12-09 05:00:00 7.7 21 Noroeste 29 Oeste 0 -- -- 72
2018-12-09 04:00:00 6.6 21 Noroeste 31 Noroeste 0 -- -- 58
2018-12-09 03:00:00 6.5 23 Noroeste 32 Noroeste 0 -- -- 49
2018-12-09 02:00:00 4.1 12 Oeste 16 Oeste 0 -- -- 70
2018-12-09 01:00:00 4.4 7 Oeste 23 Oeste 0 -- -- 74
2018-12-09 00:00:00 5.1 16 Noroeste 22 Noroeste 0 -- -- 67
2018-12-08 23:00:00 4.5 13 Noroeste 15 Noroeste 0 -- -- 68
2018-12-08 22:00:00 3.7 4 Noroeste 13 Oeste 0 -- -- 73
2018-12-08 21:00:00 4.7 9 Oeste 14 Noroeste 0 -- -- 77
2018-12-08 20:00:00 4.6 7 Noroeste 13 Noroeste 0 -- -- 83
2018-12-08 19:00:00 5.6 10 Noroeste 17 Noroeste 0 -- -- 80
2018-12-08 18:00:00 6.5 13 Noroeste 22 Noroeste 0 -- -- 75
2018-12-08 17:00:00 8.9 17 Noroeste 28 Noroeste 0 -- -- 65
2018-12-08 16:00:00 9.3 19 Noroeste 28 Noroeste 0 -- -- 66
2018-12-08 15:00:00 9.2 21 Noroeste 29 Noroeste 0 -- -- 65
2018-12-08 14:00:00 8.7 20 Noroeste 41 Oeste 0 -- -- 67
2018-12-08 13:00:00 7.4 27 Noroeste 47 Oeste 0 -- -- 82
2018-12-08 12:00:00 7.1 30 Noroeste 50 Oeste 0 -- -- 85
2018-12-08 11:00:00 5.5 25 Noroeste 37 Noroeste 0 -- -- 95
2018-12-08 10:00:00 5.4 22 Noroeste 34 Noroeste 0 -- -- 96
2018-12-08 09:00:00 4.7 17 Oeste 25 Oeste 0 -- -- 98
2018-12-08 08:00:00 5.1 19 Oeste 31 Oeste 0.2 -- -- 98
2018-12-08 07:00:00 5.2 20 Noroeste 29 Oeste 0 -- -- 98
2018-12-08 06:00:00 5.7 21 Noroeste 30 Oeste 0 -- -- 98
2018-12-08 05:00:00 5.9 19 Noroeste 32 Noroeste 0 -- -- 98
2018-12-08 04:00:00 5.9 21 Noroeste 31 Noroeste 0 -- -- 98
2018-12-08 03:00:00 6 22 Noroeste 32 Oeste 0 -- -- 98
2018-12-08 02:00:00 6 22 Noroeste 36 Oeste 0 -- -- 97
2018-12-08 01:00:00 6.4 26 Oeste 36 Oeste 0 -- -- 96
2018-12-08 00:00:00 6.6 21 Noroeste 31 Oeste 0 -- -- 96
2018-12-07 23:00:00 6.4 25 Noroeste 35 Oeste 0 -- -- 95
2018-12-07 22:00:00 7 22 Noroeste 40 Oeste 0 -- -- 93
2018-12-07 21:00:00 7.8 21 Noroeste 32 Oeste 0 -- -- 89
2018-12-07 20:00:00 8.9 22 Oeste 35 Oeste 0 -- -- 83
2018-12-07 19:00:00 9.6 21 Noroeste 33 Noroeste 0 -- -- 78
2018-12-07 18:00:00 10 23 Noroeste 33 Noroeste 0 -- -- 74
2018-12-07 17:00:00 10.4 25 Oeste 41 Noroeste 0 -- -- 68
2018-12-07 16:00:00 11.1 32 Noroeste 49 Noroeste 0 -- -- 64
2018-12-07 15:00:00 11.8 31 Noroeste 44 Noroeste 0 -- -- 62
2018-12-07 14:00:00 11.7 32 Oeste 48 Oeste 0 -- -- 60
2018-12-07 13:00:00 11.4 30 Noroeste 46 Oeste 0 -- -- 61
2018-12-07 12:00:00 10.2 34 Noroeste 54 Oeste 0 -- -- 63
2018-12-07 11:00:00 8.3 26 Oeste 37 Noroeste 0 -- -- 89
2018-12-07 10:00:00 5.1 21 Noroeste 28 Noroeste 0 -- -- 97
2018-12-07 09:00:00 2.4 7 Sur 11 Sudoeste 0 -- -- 99
2018-12-07 08:00:00 2.9 6 Oeste 23 Noroeste 0 -- -- 99
2018-12-07 07:00:00 4.1 13 Noroeste 27 Noroeste 0 -- -- 99
2018-12-07 06:00:00 4.7 19 Noroeste 29 Noroeste 0 -- -- 99
2018-12-07 05:00:00 4.4 18 Noroeste 26 Noroeste 0 -- -- 99
2018-12-07 04:00:00 4.4 14 Noroeste 24 Noroeste 0 -- -- 99
2018-12-07 03:00:00 4.8 15 Noroeste 23 Noroeste 0 -- -- 99
2018-12-07 02:00:00 4.8 15 Noroeste 25 Noroeste 0 -- -- 98
2018-12-07 01:00:00 5.2 12 Noroeste 20 Noroeste 0 -- -- 98
2018-12-07 00:00:00 5.8 10 Noroeste 24 Noroeste 0 -- -- 98
2018-12-06 23:00:00 5.9 12 Noroeste 19 Noroeste 0 -- -- 98
2018-12-06 22:00:00 5.8 9 Noroeste 15 Noroeste 0 -- -- 98
2018-12-06 21:00:00 6.1 9 Noroeste 15 Norte 0 -- -- 98
2018-12-06 20:00:00 5.8 11 Noroeste 15 Noroeste 0 -- -- 97
2018-12-06 19:00:00 6 7 Noroeste 11 Norte 0 -- -- 97
2018-12-06 18:00:00 6.6 8 Norte 21 Norte 0 -- -- 96
2018-12-06 17:00:00 8 16 Norte 25 Noroeste 0 -- -- 91
2018-12-06 16:00:00 10.8 19 Noroeste 30 Norte 0 -- -- 80
2018-12-06 15:00:00 11.4 21 Noroeste 30 Noroeste 0 -- -- 79
2018-12-06 14:00:00 11.8 17 Noroeste 30 Noroeste 0 -- -- 77
2018-12-06 13:00:00 11.7 20 Noroeste 30 Oeste 0 -- -- 78
2018-12-06 12:00:00 9.3 15 Noroeste 26 Noroeste 0 -- -- 96
2018-12-06 11:00:00 7.7 10 Noroeste 17 Noroeste 0 -- -- 98
2018-12-06 10:00:00 7.2 9 Noroeste 18 Noroeste 0 -- -- 97
2018-12-06 09:00:00 7 14 Noroeste 29 Noroeste 0 -- -- 97
2018-12-06 08:00:00 7.2 14 Noroeste 27 Noroeste 0 -- -- 96
2018-12-06 07:00:00 7.2 18 Noroeste 31 Noroeste 0 -- -- 96
2018-12-06 06:00:00 7.1 21 Noroeste 35 Oeste 0 -- -- 95
2018-12-06 05:00:00 5.6 14 Noroeste 23 Oeste 0 -- -- 95
2018-12-06 04:00:00 6.4 19 Oeste 28 Oeste 0 -- -- 93
2018-12-06 03:00:00 6.4 18 Noroeste 25 Noroeste 0 -- -- 91
2018-12-06 02:00:00 7.3 18 Oeste 27 Oeste 0 -- -- 87
2018-12-06 01:00:00 7.5 21 Oeste 27 Oeste 0 -- -- 86
2018-12-06 00:00:00 6.6 13 Oeste 19 Oeste 0 -- -- 88
2018-12-05 23:00:00 5.2 11 Oeste 14 Oeste 0 -- -- 93
2018-12-05 22:00:00 5.6 12 Oeste 15 Oeste 0 -- -- 90
2018-12-05 21:00:00 6.1 10 Noroeste 23 Noroeste 0 -- -- 88
2018-12-05 20:00:00 7.2 12 Noroeste 17 Noroeste 0 -- -- 84
2018-12-05 19:00:00 10.1 6 Sudoeste 16 Oeste 0 -- -- 55
2018-12-05 18:00:00 10.8 14 Noroeste 31 Noroeste 0 -- -- 64
2018-12-05 17:00:00 13.7 22 Noroeste 34 Oeste 0 -- -- 52
2018-12-05 16:00:00 15.7 22 Oeste 33 Oeste 0 -- -- 45
2018-12-05 15:00:00 16.1 19 Noroeste 26 Oeste 0 -- -- 47
2018-12-05 14:00:00 16.1 15 Noroeste 24 Noroeste 0 -- -- 47
2018-12-05 13:00:00 16.5 6 Norte 11 Nordeste 0 -- -- 47
2018-12-05 12:00:00 16.4 4 Norte 10 Sudoeste 0 -- -- 48
2018-12-05 11:00:00 14.4 6 Sudoeste 10 Sudoeste 0 -- -- 54
2018-12-05 10:00:00 10.2 9 Sur 12 Sudoeste 0 -- -- 66
2018-12-05 09:00:00 7.3 3 Sur 6 Sudeste 0 -- -- 68
2018-12-05 08:00:00 7 5 Sudeste 9 Sudeste 0 -- -- 69
2018-12-05 07:00:00 6.3 5 Sudeste 9 Sudeste 0 -- -- 75
2018-12-05 06:00:00 6.7 3 Sudeste 9 Sur 0 -- -- 73
2018-12-05 05:00:00 7 3 Sudeste 8 Sur 0 -- -- 74
2018-12-05 04:00:00 6.2 0 Calma 8 Sudeste 0 -- -- 78
2018-12-05 03:00:00 6.7 3 Sudeste 9 Sur 0 -- -- 76
2018-12-05 02:00:00 8.3 6 Sudeste 12 Sur 0 -- -- 75
2018-12-05 01:00:00 8.3 5 Sur 10 Sur 0 -- -- 77
2018-12-05 00:00:00 9.4 5 Sudeste 10 Sudeste 0 -- -- 75
2018-12-04 23:00:00 7.5 5 Sudeste 10 Sudeste 0 -- -- 83
2018-12-04 22:00:00 8.9 6 Sudeste 8 Sudeste 0 -- -- 80
2018-12-04 21:00:00 9.1 6 Sudeste 9 Sudeste 0 -- -- 82
2018-12-04 20:00:00 9.4 5 Sudeste 8 Sudeste 0 -- -- 84
2018-12-04 19:00:00 9.8 3 Sudeste 8 Sur 0 -- -- 85
2018-12-04 18:00:00 12.9 6 Sur 8 Sur 0 -- -- 67
2018-12-04 17:00:00 14.2 3 Sudeste 5 Sudeste 0 -- -- 61
2018-12-04 16:00:00 16.7 0 Calma 11 Noroeste 0 -- -- 50
2018-12-04 15:00:00 16.4 8 Norte 17 Norte 0 -- -- 55
2018-12-04 14:00:00 17.7 4 Norte 9 Norte 0 -- -- 49
2018-12-04 13:00:00 17.3 5 Norte 9 Norte 0 -- -- 59
2018-12-04 12:00:00 20.2 0 Calma 4 Sur 0 -- -- 50
2018-12-04 11:00:00 15.6 2 Este 5 Sudeste 0 -- -- 84
2018-12-04 10:00:00 10.2 4 Sudeste 6 Sudeste 0 -- -- 95
2018-12-04 09:00:00 6.4 0 Calma 6 Sudoeste 0 -- -- 99
2018-12-04 08:00:00 5 0 Calma 4 Noroeste 0 -- -- 99
2018-12-04 07:00:00 4.3 0 Calma 9 Sudeste 0 -- -- 99
2018-12-04 06:00:00 5.4 5 Sudeste 18 Sudeste 0 -- -- 98
2018-12-04 05:00:00 6.7 12 Sudeste 18 Sudeste 0 -- -- 98
2018-12-04 04:00:00 7.7 9 Sudeste 14 Este 0 -- -- 98
2018-12-04 03:00:00 8.2 5 Sudeste 9 Este 0 -- -- 97
2018-12-04 02:00:00 7.5 3 Sudeste 8 Sudoeste 0 -- -- 97
2018-12-04 01:00:00 7.4 2 Sudeste 8 Sur 0 -- -- 96
2018-12-04 00:00:00 7.3 5 Sur 8 Sudeste 0 -- -- 96
2018-12-03 23:00:00 7.8 0 Calma 3 Noroeste 0 -- -- 96
2018-12-03 22:00:00 8.9 0 Calma 6 Norte 0 -- -- 93
2018-12-03 21:00:00 9.9 6 Noroeste 12 Noroeste 0 -- -- 89
2018-12-03 20:00:00 10.3 6 Noroeste 15 Noroeste 0 -- -- 88
2018-12-03 19:00:00 10.9 13 Noroeste 22 Noroeste 0 -- -- 85
2018-12-03 18:00:00 11.2 16 Noroeste 22 Oeste 0 -- -- 84
2018-12-03 17:00:00 11.6 16 Oeste 27 Noroeste 0 -- -- 81
2018-12-03 16:00:00 12.7 16 Oeste 26 Oeste 0 -- -- 76
2018-12-03 15:00:00 11.9 16 Noroeste 37 Oeste 0 -- -- 79
2018-12-03 14:00:00 12.4 27 Oeste 35 Noroeste 0 -- -- 75
2018-12-03 13:00:00 9.5 7 Oeste 16 Oeste 0 -- -- 77
2018-12-03 12:00:00 10.4 7 Oeste 13 Oeste 0 -- -- 73
2018-12-03 11:00:00 10.1 0 Calma 6 Sudeste 0 -- -- 77
2018-12-03 10:00:00 5.4 3 Sudeste 5 Sudeste 0 -- -- 92
2018-12-03 09:00:00 3.9 3 Noroeste 6 Sudeste 0 -- -- 95
2018-12-03 08:00:00 3.7 6 Sudeste 14 Oeste 0 -- -- 95
2018-12-03 07:00:00 4.6 7 Noroeste 19 Noroeste 0 -- -- 95
2018-12-03 06:00:00 4.5 11 Noroeste 23 Noroeste 0 -- -- 95
2018-12-03 05:00:00 3.9 12 Noroeste 36 Noroeste 0 -- -- 94
2018-12-03 04:00:00 5.7 29 Noroeste 40 Noroeste 0 -- -- 92
2018-12-03 03:00:00 5.7 23 Noroeste 35 Noroeste 0 -- -- 92
2018-12-03 02:00:00 5.2 18 Noroeste 26 Noroeste 0 -- -- 90
2018-12-03 01:00:00 5.1 17 Noroeste 29 Noroeste 0 -- -- 90
2018-12-03 00:00:00 5.5 17 Noroeste 28 Noroeste 0 -- -- 89
2018-12-02 23:00:00 5.5 15 Noroeste 25 Noroeste 0 -- -- 87
2018-12-02 22:00:00 5 13 Noroeste 21 Noroeste 0 -- -- 90
2018-12-02 21:00:00 6 9 Noroeste 24 Noroeste 0 -- -- 85
2018-12-02 20:00:00 7.8 18 Noroeste 29 Noroeste 0 -- -- 70
2018-12-02 19:00:00 7.4 12 Noroeste 24 Noroeste 0 -- -- 77
2018-12-02 18:00:00 9.2 14 Noroeste 29 Oeste 0 -- -- 68
2018-12-02 17:00:00 11 17 Oeste 36 Oeste 0 -- -- 53
2018-12-02 16:00:00 11.9 22 Oeste 42 Oeste 0 -- -- 55
2018-12-02 15:00:00 11.3 18 Noroeste 30 Noroeste 0 -- -- 68
2018-12-02 14:00:00 12.3 19 Noroeste 27 Noroeste 0 -- -- 62
2018-12-02 13:00:00 9.9 14 Norte 22 Noroeste 0 -- -- 73
2018-12-02 12:00:00 8.2 12 Noroeste 18 Noroeste 0 -- -- 81
2018-12-02 11:00:00 8.8 8 Oeste 19 Noroeste 0 -- -- 74
2018-12-02 10:00:00 5.6 16 Noroeste 21 Noroeste 0 -- -- 88
2018-12-02 09:00:00 4.2 9 Noroeste 20 Noroeste 0 -- -- 96
2018-12-02 08:00:00 4 9 Oeste 27 Noroeste 0 -- -- 94
2018-12-02 07:00:00 3.1 9 Noroeste 21 Noroeste 0 -- -- 95
2018-12-02 06:00:00 4.2 18 Noroeste 27 Noroeste 0 -- -- 90
2018-12-02 05:00:00 4.4 19 Noroeste 27 Noroeste 0 -- -- 88
2018-12-02 04:00:00 3.7 12 Noroeste 22 Noroeste 0 -- -- 95
2018-12-02 03:00:00 4.4 19 Noroeste 37 Noroeste 0 -- -- 86
2018-12-02 02:00:00 6 26 Noroeste 39 Noroeste 0 -- -- 74
2018-12-02 01:00:00 6.7 30 Noroeste 39 Noroeste 0 -- -- 71
2018-12-02 00:00:00 6.6 23 Noroeste 39 Noroeste 0 -- -- 76
2018-12-01 23:00:00 6.1 29 Noroeste 45 Oeste 0 -- -- 80
2018-12-01 22:00:00 5.7 27 Noroeste 41 Noroeste 0 -- -- 84
2018-12-01 21:00:00 5.3 26 Noroeste 41 Noroeste 0 -- -- 85
2018-12-01 20:00:00 6 33 Noroeste 47 Noroeste 0 -- -- 82
2018-12-01 19:00:00 6 27 Noroeste 35 Noroeste 0 -- -- 80
2018-12-01 18:00:00 6.1 24 Noroeste 38 Noroeste 0 -- -- 75
2018-12-01 17:00:00 6.9 29 Noroeste 37 Noroeste 0 -- -- 70
2018-12-01 16:00:00 7.6 22 Noroeste 35 Noroeste 0 -- -- 64
2018-12-01 15:00:00 8.2 27 Noroeste 40 Oeste 0 -- -- 60
2018-12-01 14:00:00 7.2 26 Noroeste 38 Oeste 0 -- -- 70
2018-12-01 13:00:00 6.6 27 Noroeste 36 Noroeste 0 -- -- 72
2018-12-01 12:00:00 6.1 25 Noroeste 35 Oeste 0 -- -- 75
2018-12-01 11:00:00 5.2 20 Noroeste 32 Noroeste 0 -- -- 80
2018-12-01 10:00:00 4.8 21 Noroeste 30 Noroeste 0 -- -- 82
2018-12-01 09:00:00 3.3 16 Noroeste 24 Noroeste 0 -- -- 87
2018-12-01 08:00:00 2.6 13 Noroeste 27 Noroeste 0 -- -- 87
2018-12-01 07:00:00 1.8 14 Noroeste 23 Noroeste 0 -- -- 88
2018-12-01 06:00:00 0.6 4 Noroeste 10 Noroeste 0 -- -- 90
2018-12-01 05:00:00 1.8 10 Noroeste 18 Noroeste 0 -- -- 85
2018-12-01 04:00:00 2 9 Noroeste 15 Oeste 0 -- -- 83
2018-12-01 03:00:00 0.7 8 Sudoeste 14 Noroeste 0 -- -- 87
2018-12-01 02:00:00 0.8 0 Calma 9 Sur 0 -- -- 87
2018-12-01 01:00:00 1.9 7 Sudoeste 20 Oeste 0 -- -- 83
2018-12-01 00:00:00 1.5 9 Oeste 23 Oeste 0 -- -- 87
2018-11-30 23:00:00 2.5 12 Oeste 19 Noroeste 0 -- -- 85
2018-11-30 22:00:00 2.3 13 Noroeste 18 Noroeste 0 -- -- 88
2018-11-30 21:00:00 2.3 15 Noroeste 25 Noroeste 0 -- -- 91
2018-11-30 20:00:00 2.5 15 Noroeste 21 Noroeste 0 -- -- 92
2018-11-30 19:00:00 2.1 9 Oeste 22 Noroeste 0 -- -- 92
2018-11-30 18:00:00 3.4 16 Noroeste 27 Noroeste 0 -- -- 87
2018-11-30 17:00:00 4.7 19 Noroeste 30 Noroeste 0 -- -- 83
2018-11-30 16:00:00 5.4 17 Noroeste 30 Noroeste 0 -- -- 78
2018-11-30 15:00:00 5.2 22 Noroeste 33 Noroeste 0 -- -- 79
2018-11-30 14:00:00 4 18 Noroeste 30 Noroeste 0 -- -- 85
2018-11-30 13:00:00 4.1 21 Noroeste 28 Noroeste 0 -- -- 88
2018-11-30 12:00:00 3.8 18 Noroeste 28 Noroeste 0 -- -- 92
2018-11-30 11:00:00 3.4 18 Noroeste 26 Noroeste 0 -- -- 95
2018-11-30 10:00:00 2.6 12 Noroeste 24 Noroeste 0 -- -- 97
2018-11-30 09:00:00 2.6 13 Noroeste 23 Noroeste 0 -- -- 96
2018-11-30 08:00:00 2.6 17 Noroeste 25 Noroeste 0 -- -- 96
2018-11-30 07:00:00 2.7 18 Noroeste 28 Noroeste 0 -- -- 96
2018-11-30 06:00:00 3 18 Noroeste 33 Noroeste 0 -- -- 97
2018-11-30 05:00:00 3.8 19 Noroeste 27 Noroeste 0.6 -- -- 97
2018-11-30 04:00:00 4.1 15 Noroeste 22 Noroeste 0.2 -- -- 96
2018-11-30 03:00:00 3.9 9 Noroeste 15 Noroeste 0 -- -- 95
2018-11-30 02:00:00 4.4 8 Noroeste 14 Noroeste 0.2 -- -- 91
2018-11-30 01:00:00 5.6 8 Oeste 13 Oeste 0 -- -- 86
2018-11-30 00:00:00 5.5 3 Oeste 10 Sur 0 -- -- 83
2018-11-29 23:00:00 5.3 5 Sur 23 Sur 0 -- -- 83
2018-11-29 22:00:00 4.1 7 Sudeste 15 Sudeste 0.8 -- -- 89
2018-11-29 21:00:00 4.6 9 Oeste 23 Oeste 0.4 -- -- 79
2018-11-29 20:00:00 7 8 Oeste 12 Oeste 0 -- -- 58
2018-11-29 19:00:00 7.6 8 Sudoeste 12 Oeste 0 -- -- 56
2018-11-29 18:00:00 7.5 8 Sur 11 Oeste 0 -- -- 51
2018-11-29 17:00:00 9.3 0 Calma 9 Noroeste 0 -- -- 65
2018-11-29 16:00:00 11.4 5 Noroeste 17 Norte 0 -- -- 59
2018-11-29 15:00:00 13.9 10 Norte 18 Norte 0 -- -- 27
2018-11-29 14:00:00 15.9 6 Sudoeste 13 Sudoeste 0 -- -- 29
2018-11-29 13:00:00 15.5 4 Nordeste 9 Noroeste 0 -- -- 24
2018-11-29 12:00:00 15.5 4 Sur 13 Sur 0 -- -- 28
2018-11-29 11:00:00 11.5 6 Sudeste 9 Sudeste 0 -- -- 43
2018-11-29 10:00:00 8.9 7 Sudeste 12 Sur 0 -- -- 47
2018-11-29 09:00:00 4.7 2 Sur 16 Sur 0 -- -- 45
2018-11-29 08:00:00 1.5 0 Calma 10 Sudeste 0 -- -- 53
2018-11-29 07:00:00 1.8 7 Sudeste 11 Sudeste 0 -- -- 55
2018-11-29 06:00:00 2.2 6 Sudeste 10 Sur 0 -- -- 49
2018-11-29 05:00:00 1.6 5 Sudeste 11 Sudoeste 0 -- -- 55
2018-11-29 04:00:00 0.9 7 Sudeste 12 Sudeste 0 -- -- 62
2018-11-29 03:00:00 2.6 6 Sudeste 13 Sudoeste 0 -- -- 52
2018-11-29 02:00:00 1.6 10 Sur 14 Sur 0 -- -- 58
2018-11-29 01:00:00 3.4 2 Sur 17 Sudeste 0 -- -- 52
2018-11-29 00:00:00 3.5 6 Sudeste 12 Sudeste 0 -- -- 56
2018-11-28 23:00:00 4.6 5 Sudeste 9 Sur 0 -- -- 55
2018-11-28 22:00:00 4 5 Sudeste 13 Sudeste 0 -- -- 63
2018-11-28 21:00:00 2.6 8 Sudeste 12 Sudeste 0 -- -- 77
2018-11-28 13:00:00 -- -- -- -- -- -- -- -- --
2018-11-28 12:00:00 -- -- -- -- -- -- -- -- --
2018-11-28 11:00:00 9.6 16 Noroeste 26 Noroeste 0 -- -- 37
2018-11-28 10:00:00 7.9 15 Noroeste 24 Noroeste 0 -- -- 39
2018-11-28 09:00:00 5.1 13 Noroeste 19 Noroeste 0 -- -- 44
2018-11-28 08:00:00 2 11 Noroeste 17 Noroeste 0 -- -- 54
2018-11-28 07:00:00 2.6 13 Noroeste 17 Noroeste 0 -- -- 56
2018-11-28 06:00:00 2.6 10 Oeste 15 Oeste 0 -- -- 51
2018-11-28 05:00:00 2.6 8 Oeste 15 Oeste 0 -- -- 50
2018-11-28 04:00:00 2.2 0 Calma 8 Oeste 0 -- -- 53
2018-11-28 03:00:00 2.5 6 Oeste 10 Oeste 0 -- -- 55
2018-11-28 02:00:00 3.3 8 Oeste 15 Oeste 0 -- -- 55
2018-11-28 01:00:00 3.9 10 Oeste 14 Oeste 0 -- -- 55
2018-11-28 00:00:00 2.9 8 Noroeste 13 Oeste 0 -- -- 64
2018-11-27 23:00:00 3.4 10 Oeste 14 Oeste 0 -- -- 62
2018-11-27 22:00:00 3.2 7 Oeste 12 Oeste 0 -- -- 66
2018-11-27 21:00:00 3.4 9 Oeste 12 Oeste 0 -- -- 72
2018-11-27 20:00:00 3.4 3 Noroeste 15 Oeste 0 -- -- 78
2018-11-27 19:00:00 4.7 12 Noroeste 20 Noroeste 0 -- -- 77
2018-11-27 18:00:00 4.2 8 Noroeste 21 Noroeste 0 -- -- 74
2018-11-27 17:00:00 7.5 15 Noroeste 23 Noroeste 0 -- -- 56
2018-11-27 16:00:00 8.9 18 Noroeste 25 Noroeste 0 -- -- 54
2018-11-27 15:00:00 9.9 19 Noroeste 26 Noroeste 0 -- -- 45
2018-11-27 14:00:00 10.1 12 Noroeste 17 Noroeste 0 -- -- 52
2018-11-27 13:00:00 8.6 8 Norte 16 Noroeste 0 -- -- 64
2018-11-27 12:00:00 8.1 9 Norte 18 Oeste 0 -- -- 67
2018-11-27 11:00:00 6.7 10 Noroeste 16 Noroeste 0 -- -- 74
2018-11-27 10:00:00 3.6 8 Oeste 13 Oeste 0 -- -- 86
2018-11-27 09:00:00 1.4 9 Oeste 20 Noroeste 0 -- -- 96
2018-11-27 08:00:00 0.8 13 Oeste 19 Oeste 0 -- -- 96
2018-11-27 07:00:00 0.9 9 Noroeste 18 Noroeste 0 -- -- 96
2018-11-27 06:00:00 1.3 10 Oeste 19 Noroeste 0 -- -- 95
2018-11-27 05:00:00 1 10 Oeste 23 Noroeste 0 -- -- 94
2018-11-27 04:00:00 1.1 10 Oeste 17 Oeste 0 -- -- 93
2018-11-27 03:00:00 1.1 11 Oeste 18 Oeste 0 -- -- 91
2018-11-27 02:00:00 1.3 13 Oeste 19 Oeste 0 -- -- 91
2018-11-27 01:00:00 1.4 15 Oeste 19 Oeste 0 -- -- 93
2018-11-27 00:00:00 1.4 9 Oeste 17 Noroeste 0 -- -- 94
2018-11-26 23:00:00 1.9 12 Noroeste 29 Noroeste 0 -- -- 92
2018-11-26 22:00:00 3.6 21 Noroeste 37 Noroeste 0 -- -- 87
2018-11-26 21:00:00 4.7 25 Noroeste 37 Noroeste 0 -- -- 82
2018-11-26 20:00:00 4.5 20 Noroeste 33 Noroeste 0.2 -- -- 85
2018-11-26 19:00:00 5 22 Noroeste 35 Noroeste 0 -- -- 83
2018-11-26 18:00:00 5.1 25 Noroeste 36 Noroeste 0 -- -- 82
2018-11-26 17:00:00 5.5 23 Noroeste 34 Noroeste 0 -- -- 82
2018-11-26 16:00:00 5.8 23 Noroeste 37 Noroeste 0 -- -- 78
2018-11-26 15:00:00 5.9 24 Noroeste 34 Noroeste 0 -- -- 77
2018-11-26 14:00:00 5.1 22 Noroeste 31 Noroeste 0 -- -- 81
2018-11-26 13:00:00 4.1 22 Noroeste 32 Noroeste 0 -- -- 88
2018-11-26 12:00:00 3.4 20 Noroeste 32 Noroeste 0 -- -- 91
2018-11-26 11:00:00 2.8 18 Noroeste 38 Noroeste 0 -- -- 96
2018-11-26 10:00:00 1.8 19 Noroeste 32 Noroeste 0.2 -- -- 97
2018-11-26 09:00:00 1.4 26 Noroeste 43 Noroeste 0 -- -- 97
2018-11-26 08:00:00 1.6 31 Noroeste 57 Noroeste 0 -- -- 96
2018-11-26 07:00:00 1.4 41 Noroeste 64 Noroeste 0 -- -- 94
2018-11-26 06:00:00 1.8 50 Noroeste 81 Noroeste 0 -- -- 92
2018-11-26 05:00:00 2.4 50 Noroeste 77 Noroeste 0 -- -- 91
2018-11-26 04:00:00 4.1 51 Noroeste 82 Oeste 0.4 -- -- 94
2018-11-26 03:00:00 5.2 43 Oeste 68 Oeste 0.4 -- -- 91
2018-11-26 02:00:00 5.1 4 Oeste 19 Sur 0.8 -- -- 94
2018-11-26 01:00:00 4.8 8 Sudeste 13 Sudeste 0.2 -- -- 96
2018-11-26 00:00:00 4.9 2 Sur 18 Oeste 1.6 -- -- 95
2018-11-25 23:00:00 5.2 10 Oeste 26 Oeste 1.8 -- -- 92
2018-11-25 22:00:00 6.3 16 Oeste 27 Oeste 0.6 -- -- 94
2018-11-25 21:00:00 6.1 5 Noroeste 13 Noroeste 0 -- -- 95
2018-11-25 20:00:00 6 5 Noroeste 14 Oeste 0 -- -- 94
2018-11-25 19:00:00 6.1 11 Oeste 22 Oeste 0 -- -- 92
2018-11-25 18:00:00 6.6 14 Oeste 22 Oeste 0 -- -- 90
2018-11-25 17:00:00 7.1 15 Oeste 34 Oeste 0 -- -- 87
2018-11-25 16:00:00 7.5 22 Oeste 34 Noroeste 0 -- -- 81
2018-11-25 15:00:00 7.6 23 Noroeste 49 Noroeste 0 -- -- 85
2018-11-25 14:00:00 7.4 30 Noroeste 49 Noroeste 0 -- -- 88
2018-11-25 13:00:00 7.6 31 Noroeste 45 Noroeste 0 -- -- 89
2018-11-25 12:00:00 7.5 24 Noroeste 36 Noroeste 0 -- -- 93
2018-11-25 11:00:00 6.4 26 Noroeste 42 Noroeste 0.2 -- -- 96
2018-11-25 10:00:00 6.8 27 Oeste 45 Noroeste 0 -- -- 96
2018-11-25 09:00:00 6.8 27 Oeste 40 Oeste 1.2 -- -- 96
2018-11-25 08:00:00 6.5 27 Oeste 39 Oeste 1.2 -- -- 95
2018-11-25 07:00:00 6.7 25 Oeste 41 Oeste 0.8 -- -- 94
2018-11-25 06:00:00 6.9 27 Oeste 54 Oeste 0 -- -- 90
2018-11-25 05:00:00 8.1 31 Oeste 48 Oeste 0 -- -- 80
2018-11-25 04:00:00 4.6 17 Sudoeste 36 Sudoeste 0.2 -- -- 87
2018-11-25 03:00:00 4.5 24 Sudoeste 42 Sudoeste 1 -- -- 86
2018-11-25 02:00:00 4.1 24 Sudoeste 48 Sudoeste 2 -- -- 86
2018-11-25 01:00:00 4.6 25 Sudoeste 44 Sudoeste 0 -- -- 85
2018-11-25 00:00:00 4.4 25 Sudoeste 50 Sudoeste 0.4 -- -- 85
2018-11-24 23:00:00 4.9 28 Sudoeste 40 Sudoeste 0 -- -- 80
2018-11-24 22:00:00 4.8 17 Sur 33 Sur 0 -- -- 75
2018-11-24 21:00:00 4.1 16 Sur 29 Sur 0 -- -- 76
2018-11-24 20:00:00 3.7 16 Sudoeste 29 Sudoeste 0 -- -- 73
2018-11-24 19:00:00 2.9 17 Sudoeste 32 Sur 0 -- -- 80
2018-11-24 18:00:00 3.2 13 Sur 33 Sur 0 -- -- 81
2018-11-24 17:00:00 4.7 16 Sur 31 Sur 0 -- -- 75
2018-11-24 16:00:00 7.5 17 Sur 26 Sur 0 -- -- 66
2018-11-24 15:00:00 8.3 10 Noroeste 18 Sudoeste 0 -- -- 60
2018-11-24 14:00:00 8.3 11 Sudoeste 20 Sudoeste 0 -- -- 58
2018-11-24 13:00:00 7.5 14 Oeste 25 Oeste 0 -- -- 61
2018-11-24 12:00:00 6.6 21 Oeste 29 Oeste 0 -- -- 67
2018-11-24 11:00:00 6.2 17 Oeste 26 Oeste 0 -- -- 67
2018-11-24 10:00:00 6.5 12 Oeste 21 Oeste 0 -- -- 69
2018-11-24 09:00:00 3.5 4 Sur 9 Sur 0 -- -- 78
2018-11-24 08:00:00 2.3 4 Sudoeste 12 Oeste 0 -- -- 82
2018-11-24 07:00:00 2.8 3 Oeste 7 Oeste 0 -- -- 79
2018-11-24 06:00:00 3.2 5 Sur 25 Oeste 0 -- -- 77
2018-11-24 05:00:00 2.9 14 Oeste 31 Oeste 0 -- -- 80
2018-11-24 04:00:00 3.3 24 Oeste 36 Oeste 0 -- -- 77
2018-11-24 03:00:00 3.3 22 Oeste 31 Oeste 0 -- -- 76
2018-11-24 02:00:00 2.9 11 Oeste 21 Oeste 0 -- -- 75
2018-11-24 01:00:00 2.9 12 Oeste 23 Oeste 0 -- -- 76
2018-11-24 00:00:00 3.5 10 Oeste 18 Oeste 0 -- -- 78
2018-11-23 23:00:00 3 10 Sudoeste 20 Sudoeste 0 -- -- 82
2018-11-23 22:00:00 2.3 6 Sur 10 Sur 0 -- -- 84
2018-11-23 21:00:00 2 3 Sur 5 Sudeste 0 -- -- 83
2018-11-23 20:00:00 2.7 3 Sudoeste 18 Oeste 0 -- -- 81
2018-11-23 19:00:00 2.9 9 Oeste 21 Oeste 0 -- -- 83
2018-11-23 18:00:00 4.4 17 Oeste 30 Oeste 0 -- -- 76
2018-11-23 17:00:00 5.6 21 Oeste 32 Oeste 0 -- -- 68
2018-11-23 16:00:00 6.3 21 Oeste 35 Oeste 0 -- -- 71
2018-11-23 15:00:00 7.1 24 Oeste 42 Noroeste 0 -- -- 67
2018-11-23 14:00:00 6.9 24 Oeste 38 Oeste 0 -- -- 70
2018-11-23 13:00:00 6.8 21 Oeste 38 Oeste 0 -- -- 70
2018-11-23 12:00:00 5.3 22 Oeste 46 Oeste 0.2 -- -- 86
2018-11-23 11:00:00 4.2 14 Oeste 28 Oeste 0 -- -- 91
2018-11-23 10:00:00 3.4 13 Oeste 22 Oeste 0 -- -- 90
2018-11-23 09:00:00 2.2 2 Nordeste 5 Este 0 -- -- 96
2018-11-23 08:00:00 1.9 2 Nordeste 17 Oeste 0.8 -- -- 95
2018-11-23 07:00:00 1.5 10 Oeste 18 Oeste 0.8 -- -- 97
2018-11-23 06:00:00 0.3 15 Oeste 33 Oeste 0.8 -- -- 96
2018-11-23 05:00:00 1.2 28 Oeste 46 Noroeste 2.4 -- -- 94
2018-11-23 04:00:00 5.7 4 Sudoeste 13 Sudoeste 0 -- -- 86
2018-11-23 03:00:00 5.7 10 Sudoeste 21 Sur 0 -- -- 82
2018-11-23 02:00:00 6 15 Sudoeste 24 Sudoeste 0 -- -- 80
2018-11-23 01:00:00 6.4 11 Sur 27 Sur 0 -- -- 81
2018-11-23 00:00:00 5.8 9 Sur 28 Sur 0 -- -- 82
2018-11-22 23:00:00 5.8 13 Sur 22 Sur 0 -- -- 80
2018-11-22 22:00:00 5.9 9 Sur 32 Sur 0 -- -- 81
2018-11-22 21:00:00 6 13 Sur 27 Sur 0 -- -- 80
2018-11-22 20:00:00 6 12 Sur 24 Sudoeste 0 -- -- 81
2018-11-22 19:00:00 6 9 Sur 24 Sur 0 -- -- 76
2018-11-22 18:00:00 5.9 9 Sur 21 Sudoeste 0 -- -- 77
2018-11-22 17:00:00 6.4 8 Sur 27 Sudoeste 0 -- -- 76
2018-11-22 16:00:00 7.5 17 Sudoeste 29 Sur 0 -- -- 68
2018-11-22 15:00:00 7.6 14 Sur 31 Sur 0 -- -- 70
2018-11-22 14:00:00 7.2 18 Sur 31 Sudoeste 0 -- -- 71
2018-11-22 13:00:00 7 18 Sudoeste 33 Sur 0 -- -- 70
2018-11-22 12:00:00 7.6 22 Sudoeste 36 Sur 0 -- -- 68
2018-11-22 11:00:00 5.8 19 Sur 38 Sur 0 -- -- 74
2018-11-22 10:00:00 5.6 18 Sudoeste 30 Sudoeste 0 -- -- 71
2018-11-22 09:00:00 4.6 12 Sur 23 Sur 0 -- -- 80
2018-11-22 08:00:00 4 16 Sur 23 Sur 0 -- -- 82
2018-11-22 07:00:00 4.2 12 Sur 30 Sur 0 -- -- 76
2018-11-22 06:00:00 4 16 Sudoeste 30 Sudoeste 0 -- -- 77
2018-11-22 05:00:00 3.2 8 Sur 19 Sur 0 -- -- 80
2018-11-22 04:00:00 3.5 9 Sudeste 18 Sur 0 -- -- 84
2018-11-22 03:00:00 3 11 Sur 15 Sudeste 0 -- -- 84
2018-11-22 02:00:00 2.1 6 Sudeste 11 Sudeste 0 -- -- 84
2018-11-22 01:00:00 2.8 0 Calma 8 Oeste 0 -- -- 88
2018-11-22 00:00:00 3.7 6 Noroeste 26 Sudoeste 0 -- -- 85
2018-11-21 23:00:00 4.9 14 Sudoeste 28 Sudoeste 0 -- -- 77
2018-11-21 22:00:00 4.6 13 Sudoeste 21 Sudoeste 0 -- -- 78
2018-11-21 21:00:00 4.4 14 Sur 20 Sur 0 -- -- 82
2018-11-21 20:00:00 4.6 6 Sur 20 Sudoeste 0 -- -- 82
2018-11-21 19:00:00 4.5 5 Sur 10 Sur 0 -- -- 87
2018-11-21 18:00:00 4.5 6 Sudoeste 23 Noroeste 0.2 -- -- 92
2018-11-21 17:00:00 5.6 6 Noroeste 17 Noroeste 0 -- -- 87
2018-11-21 16:00:00 6 11 Oeste 27 Sudoeste 0.2 -- -- 85
2018-11-21 15:00:00 7.4 14 Oeste 33 Oeste 0 -- -- 73
2018-11-21 14:00:00 8.8 17 Oeste 27 Oeste 0 -- -- 68
2018-11-21 13:00:00 8.5 16 Oeste 36 Oeste 0 -- -- 72
2018-11-21 12:00:00 5.8 24 Oeste 35 Oeste 0 -- -- 83
2018-11-21 11:00:00 5.8 18 Oeste 43 Oeste 0 -- -- 83
2018-11-21 10:00:00 5.4 24 Oeste 36 Sudoeste 0 -- -- 81
2018-11-21 09:00:00 4.4 14 Oeste 29 Oeste 0.4 -- -- 88
2018-11-21 08:00:00 5.4 13 Oeste 30 Oeste 0 -- -- 78
2018-11-21 07:00:00 4.8 16 Oeste 32 Sudoeste 0 -- -- 85
2018-11-21 06:00:00 4.9 21 Sudoeste 42 Oeste 0 -- -- 85
2018-11-21 05:00:00 5.1 15 Oeste 38 Oeste 0.2 -- -- 89
2018-11-21 04:00:00 4.9 25 Oeste 41 Oeste 0.6 -- -- 90
2018-11-21 03:00:00 4.5 22 Oeste 38 Oeste 0 -- -- 90
2018-11-21 02:00:00 4.9 19 Oeste 31 Oeste 0.4 -- -- 91
2018-11-21 01:00:00 4.7 23 Oeste 40 Oeste 0 -- -- 92
2018-11-21 00:00:00 4.8 22 Oeste 44 Oeste 0 -- -- 92
2018-11-20 23:00:00 4.6 21 Oeste 46 Oeste 0.4 -- -- 93
2018-11-20 22:00:00 4.8 19 Oeste 33 Sudoeste 0.2 -- -- 93
2018-11-20 21:00:00 4.5 22 Oeste 36 Oeste 0.4 -- -- 93
2018-11-20 20:00:00 4.8 18 Oeste 34 Oeste 1 -- -- 93
2018-11-20 19:00:00 5.2 19 Oeste 33 Oeste 0.2 -- -- 87
2018-11-20 18:00:00 5.6 22 Oeste 47 Oeste 0 -- -- 84
2018-11-20 17:00:00 6.2 30 Oeste 49 Oeste 0 -- -- 81
2018-11-20 16:00:00 7 29 Oeste 48 Oeste 0 -- -- 76
2018-11-20 15:00:00 6.6 30 Oeste 47 Oeste 0 -- -- 76
2018-11-20 14:00:00 6.1 23 Oeste 49 Sudoeste 0 -- -- 87
2018-11-20 13:00:00 6.2 27 Oeste 44 Oeste 0 -- -- 82
2018-11-20 12:00:00 6.1 26 Oeste 50 Oeste 0 -- -- 81
2018-11-20 11:00:00 5.8 28 Oeste 56 Oeste 0.4 -- -- 88
2018-11-20 10:00:00 6.8 24 Oeste 41 Oeste 0.2 -- -- 85
2018-11-20 09:00:00 6.4 25 Oeste 40 Oeste 0 -- -- 87
2018-11-20 08:00:00 6 17 Oeste 30 Oeste 0.4 -- -- 94
2018-11-20 07:00:00 5.9 16 Oeste 31 Oeste 0.2 -- -- 95
2018-11-20 06:00:00 6 17 Oeste 34 Oeste 0.4 -- -- 96
2018-11-20 05:00:00 6.1 16 Oeste 31 Oeste 0.2 -- -- 96
2018-11-20 04:00:00 6.2 19 Oeste 30 Oeste 0 -- -- 95
2018-11-20 03:00:00 5.8 17 Oeste 30 Oeste 0 -- -- 95
2018-11-20 02:00:00 6 18 Oeste 30 Oeste 0 -- -- 95
2018-11-20 01:00:00 6.2 13 Oeste 18 Oeste 0 -- -- 95
2018-11-20 00:00:00 6.1 10 Oeste 14 Oeste 0.2 -- -- 93
2018-11-19 23:00:00 6 11 Oeste 19 Oeste 0 -- -- 94
2018-11-19 22:00:00 6.4 10 Oeste 14 Oeste 0 -- -- 92
2018-11-19 21:00:00 6.4 10 Noroeste 15 Noroeste 0.2 -- -- 93
2018-11-19 20:00:00 7.1 12 Noroeste 17 Noroeste 0 -- -- 86
2018-11-19 19:00:00 7.4 9 Noroeste 12 Oeste 0 -- -- 83
2018-11-19 18:00:00 7.7 10 Noroeste 13 Noroeste 0 -- -- 79
2018-11-19 17:00:00 8.3 5 Noroeste 8 Oeste 0 -- -- 77
2018-11-19 16:00:00 8.4 3 Noroeste 12 Noroeste 0 -- -- 76
2018-11-19 15:00:00 8.7 5 Norte 11 Noroeste 0 -- -- 75
2018-11-19 14:00:00 9.5 5 Este 15 Sudeste 0 -- -- 73
2018-11-19 13:00:00 8.9 9 Este 15 Este 0 -- -- 77
2018-11-19 12:00:00 8.1 10 Este 20 Sudeste 0 -- -- 81
2018-11-19 11:00:00 6.7 15 Este 22 Este 0 -- -- 86
2018-11-19 10:00:00 6.2 13 Sudeste 23 Sudeste 0 -- -- 92
2018-11-19 09:00:00 5.2 16 Sudeste 22 Sudeste 0 -- -- 94
2018-11-19 08:00:00 4.5 17 Sudeste 25 Sudeste 0 -- -- 94
2018-11-19 07:00:00 4.7 17 Sudeste 26 Sudeste 0 -- -- 93
2018-11-19 06:00:00 5 19 Sudeste 24 Sudeste 0 -- -- 94
2018-11-19 05:00:00 5 14 Sudeste 35 Sudeste 0 -- -- 93
2018-11-19 04:00:00 5.2 21 Sudeste 36 Sudeste 0 -- -- 93
2018-11-19 03:00:00 5.6 20 Sudeste 27 Este 0 -- -- 93
2018-11-19 02:00:00 5.8 15 Sudeste 28 Sudeste 0 -- -- 94
2018-11-19 01:00:00 5.8 15 Sudeste 29 Sudeste 0 -- -- 94
2018-11-19 00:00:00 5.8 18 Sudeste 33 Este 0 -- -- 93
2018-11-18 23:00:00 5.9 25 Sudeste 34 Sudeste 0.2 -- -- 93
2018-11-18 22:00:00 5.9 24 Sudeste 39 Sudeste 0.2 -- -- 94
2018-11-18 21:00:00 6.1 26 Sudeste 34 Sudeste 0.2 -- -- 93
2018-11-18 20:00:00 6.2 15 Sudeste 25 Sudeste 0 -- -- 92
2018-11-18 19:00:00 5.7 12 Sudeste 26 Sur 0.2 -- -- 89
2018-11-18 18:00:00 7 25 Sudeste 39 Sudeste 0.4 -- -- 86
2018-11-18 17:00:00 8.9 15 Sudeste 28 Sur 0 -- -- 76
2018-11-18 16:00:00 8.9 22 Sudeste 35 Sudeste 0 -- -- 77
2018-11-18 15:00:00 8.9 19 Sudeste 34 Sudeste 0 -- -- 80
2018-11-18 14:00:00 8.5 27 Sudeste 39 Sudeste 0 -- -- 82
2018-11-18 13:00:00 9.5 26 Sudeste 46 Sur 0 -- -- 75
2018-11-18 12:00:00 9.2 30 Sudeste 49 Sudeste 0 -- -- 75
2018-11-18 11:00:00 9.2 22 Sudeste 36 Sudeste 0 -- -- 78
2018-11-18 10:00:00 8.2 19 Este 31 Este 0 -- -- 81
2018-11-18 09:00:00 8.4 13 Sudeste 21 Sur 0 -- -- 83
2018-11-18 08:00:00 7 8 Sudeste 21 Sudeste 0 -- -- 86
2018-11-18 07:00:00 7.2 12 Sudeste 26 Sur 0 -- -- 85
2018-11-18 06:00:00 6.4 10 Sudeste 28 Sur 0 -- -- 88
2018-11-18 05:00:00 7 16 Sudeste 28 Sur 0 -- -- 85
2018-11-18 04:00:00 7.2 10 Sur 25 Sur 0 -- -- 84
2018-11-18 03:00:00 8.1 15 Sur 29 Sur 0 -- -- 81
2018-11-18 02:00:00 8.3 13 Sudeste 26 Sudeste 0 -- -- 82
2018-11-18 01:00:00 7.9 7 Sur 24 Sur 0 -- -- 81
2018-11-18 00:00:00 6.3 8 Sudeste 16 Sudeste 0 -- -- 85
2018-11-17 23:00:00 6.1 9 Sudeste 13 Sudeste 0 -- -- 83
2018-11-17 22:00:00 6.3 9 Sudeste 10 Sudeste 0 -- -- 83
2018-11-17 21:00:00 7.5 9 Sur 13 Sudoeste 0 -- -- 82
2018-11-17 20:00:00 8.9 4 Sudeste 8 Sur 0 -- -- 79
2018-11-17 19:00:00 9.7 0 Calma 15 Sur 0 -- -- 75
2018-11-17 18:00:00 10.4 6 Sur 15 Sudoeste 0 -- -- 70
2018-11-17 17:00:00 13.1 9 Sudoeste 19 Sudoeste 0 -- -- 61
2018-11-17 16:00:00 14.1 13 Sudoeste 20 Sur 0 -- -- 58
2018-11-17 15:00:00 13.3 7 Sudeste 25 Sur 0 -- -- 60
2018-11-17 14:00:00 13 17 Sur 27 Sudoeste 0 -- -- 63
2018-11-17 13:00:00 13.2 15 Sudoeste 34 Sur 0 -- -- 65
2018-11-17 12:00:00 11.4 15 Sudoeste 24 Sur 0 -- -- 73
2018-11-17 11:00:00 11.2 17 Sur 26 Sudeste 0 -- -- 75
2018-11-17 10:00:00 10.4 13 Sur 23 Sur 0 -- -- 80
2018-11-17 09:00:00 8.1 13 Sudeste 28 Sur 0 -- -- 89
2018-11-17 08:00:00 7.7 14 Sudeste 25 Sudeste 0 -- -- 89
2018-11-17 07:00:00 7.5 13 Sudeste 21 Sudeste 0 -- -- 88
2018-11-17 06:00:00 7.8 15 Sur 23 Sudeste 0 -- -- 87
2018-11-17 05:00:00 6.8 14 Este 24 Este 0 -- -- 88
2018-11-17 04:00:00 7.9 12 Sudeste 21 Sudeste 0 -- -- 87
2018-11-17 03:00:00 7.6 13 Sudeste 23 Sudeste 0 -- -- 87
2018-11-17 02:00:00 7.7 13 Sur 18 Sur 0 -- -- 88
2018-11-17 01:00:00 8.6 13 Sur 19 Sur 0 -- -- 86
2018-11-17 00:00:00 8.4 14 Sur 21 Sur 0 -- -- 89
2018-11-16 23:00:00 7.2 14 Sudeste 19 Sudeste 0 -- -- 93
2018-11-16 22:00:00 7.3 13 Sudeste 16 Sudeste 0 -- -- 96
2018-11-16 21:00:00 8.2 6 Sudeste 20 Sudeste 0 -- -- 92
2018-11-16 20:00:00 9 16 Sudeste 21 Sudeste 0 -- -- 92
2018-11-16 19:00:00 9.1 17 Sudeste 20 Sudeste 0 -- -- 89
2018-11-16 18:00:00 9.6 11 Sudeste 20 Sudeste 0 -- -- 86
2018-11-16 17:00:00 12 15 Sudeste 25 Sur 0 -- -- 75
2018-11-16 16:00:00 12.5 13 Sudeste 20 Sur 0 -- -- 71
2018-11-16 15:00:00 13.1 10 Sur 24 Sur 0 -- -- 67
2018-11-16 14:00:00 12.7 17 Sur 28 Sur 0 -- -- 68
2018-11-16 13:00:00 13.5 15 Sur 30 Sur 0 -- -- 67
2018-11-16 12:00:00 13.9 19 Sur 32 Sur 0 -- -- 67
2018-11-16 11:00:00 13.5 13 Sur 22 Sudeste 0 -- -- 71
2018-11-16 10:00:00 12.3 10 Sudeste 20 Sudeste 0 -- -- 76
2018-11-16 09:00:00 8.1 10 Sudeste 17 Sudeste 0 -- -- 91
2018-11-16 08:00:00 6.6 13 Sudeste 29 Sudeste 0 -- -- 95
2018-11-16 07:00:00 6.6 13 Sudeste 23 Sudeste 0 -- -- 95
2018-11-16 06:00:00 7.2 14 Sudeste 19 Sudeste 0 -- -- 95
2018-11-16 05:00:00 7.5 16 Sudeste 21 Sudeste 0 -- -- 93
2018-11-16 04:00:00 8.6 13 Sudeste 18 Sudeste 0 -- -- 91
2018-11-16 03:00:00 8.1 13 Sudeste 17 Sudeste 0 -- -- 95
2018-11-16 02:00:00 8.4 13 Sudeste 22 Sudeste 0 -- -- 94
2018-11-16 01:00:00 8.3 10 Sudeste 23 Sudeste 0 -- -- 94
2018-11-16 00:00:00 8.9 12 Sudeste 22 Sudeste 0 -- -- 93
2018-11-15 23:00:00 8.6 17 Sudeste 24 Sudeste 0 -- -- 94
2018-11-15 22:00:00 8.4 13 Sudeste 17 Sudeste 0 -- -- 93
2018-11-15 21:00:00 9.8 11 Sudeste 26 Sudeste 0 -- -- 90
2018-11-15 20:00:00 10.2 12 Sudeste 22 Sudeste 0 -- -- 88
2018-11-15 19:00:00 10.1 12 Sudeste 21 Sudeste 0 -- -- 88
2018-11-15 18:00:00 10.4 9 Sudeste 22 Sudeste 0 -- -- 84
2018-11-15 17:00:00 12.7 16 Sudeste 23 Este 0 -- -- 73
2018-11-15 16:00:00 12.8 17 Este 24 Este 0 -- -- 71
2018-11-15 15:00:00 13.1 13 Este 22 Este 0 -- -- 69
2018-11-15 14:00:00 12.7 15 Sudeste 24 Este 0 -- -- 65
2018-11-15 13:00:00 12.8 14 Este 22 Sudeste 0 -- -- 71
2018-11-15 12:00:00 11.4 16 Este 24 Este 0 -- -- 76
2018-11-15 11:00:00 12.3 9 Este 21 Sudeste 0 -- -- 77
2018-11-15 10:00:00 10.1 8 Sudeste 15 Este 0 -- -- 85
2018-11-15 09:00:00 8.3 8 Sudeste 21 Sudeste 0 -- -- 87
2018-11-15 08:00:00 6.7 15 Sudeste 21 Sudeste 0 -- -- 95
2018-11-15 07:00:00 6.4 9 Sudeste 20 Sudeste 0 -- -- 93
2018-11-15 06:00:00 7.5 13 Sudeste 23 Sudeste 0 -- -- 94
2018-11-15 05:00:00 7.1 13 Sudeste 22 Sudeste 0 -- -- 92
2018-11-15 04:00:00 8.8 15 Sur 26 Sudeste 0 -- -- 83
2018-11-15 03:00:00 8.8 15 Sur 27 Sur 0 -- -- 84
2018-11-15 02:00:00 6.7 6 Sudeste 18 Sudeste 0 -- -- 93
2018-11-15 01:00:00 7.5 13 Sudeste 19 Sudeste 0 -- -- 94
2018-11-15 00:00:00 8.8 11 Sudeste 20 Sudeste 0 -- -- 93
2018-11-14 23:00:00 9.2 16 Sudeste 20 Sudeste 0 -- -- 92
2018-11-14 22:00:00 8.7 8 Sudeste 16 Sudeste 0 -- -- 91
2018-11-14 21:00:00 8.2 8 Sudeste 13 Sudeste 0 -- -- 90
2018-11-14 20:00:00 8.1 4 Sudeste 13 Sudeste 0 -- -- 89
2018-11-14 19:00:00 8.8 8 Sudeste 9 Sudeste 0 -- -- 87
2018-11-14 18:00:00 10.7 6 Sur 15 Sur 0 -- -- 78
2018-11-14 17:00:00 12.5 7 Sur 22 Sur 0 -- -- 70
2018-11-14 16:00:00 13.6 15 Sur 25 Sur 0 -- -- 65
2018-11-14 15:00:00 14.6 15 Sur 26 Sur 0 -- -- 62
2018-11-14 14:00:00 14.2 14 Sur 28 Sur 0 -- -- 63
2018-11-14 13:00:00 13.8 19 Sur 27 Sur 0 -- -- 64
2018-11-14 12:00:00 14.1 17 Sur 29 Sur 0 -- -- 66
2018-11-14 11:00:00 12.8 17 Sur 27 Sur 0 -- -- 71
2018-11-14 10:00:00 10.7 15 Sur 24 Sur 0 -- -- 76
2018-11-14 09:00:00 8.4 8 Este 23 Sudeste 0 -- -- 81
2018-11-14 08:00:00 -- 16 Sudeste 24 Sudeste 0 -- -- --
2018-11-14 07:00:00 7.6 15 Sudeste 24 Sur 0 -- -- 85
2018-11-14 06:00:00 9 15 Sur 26 Sudeste 0 -- -- 82
2018-11-14 05:00:00 5.5 15 Sudeste 22 Sudeste 0 -- -- 91
2018-11-14 04:00:00 4.8 12 Sudeste 20 Sudeste 0 -- -- 98
2018-11-14 03:00:00 5.1 10 Sudeste 14 Sudeste 0 -- -- 95
2018-11-14 02:00:00 5.1 9 Sudeste 15 Sudeste 0 -- -- 96
2018-11-14 01:00:00 6.6 13 Sudeste 17 Sudeste 0 -- -- 94
2018-11-14 00:00:00 5.2 8 Sudeste 13 Este 0 -- -- 95
2018-11-13 23:00:00 5.6 9 Sudeste 18 Sudeste 0 -- -- 97
2018-11-13 22:00:00 6 13 Sudeste 18 Sudeste 0 -- -- 95
2018-11-13 21:00:00 6.5 10 Sudeste 23 Sudeste 0 -- -- 94
2018-11-13 20:00:00 7.5 18 Sudeste 27 Sudeste 0 -- -- 93
2018-11-13 19:00:00 8.2 15 Sudeste 18 Sudeste 0 -- -- 90
2018-11-13 18:00:00 10 14 Sudeste 23 Este 0 -- -- 84
2018-11-13 17:00:00 13.5 18 Este 25 Sudeste 0 -- -- 72
2018-11-13 16:00:00 14.5 18 Este 32 Este 0 -- -- 66
2018-11-13 15:00:00 14.5 19 Sudeste 27 Sudeste 0 -- -- 67
2018-11-13 14:00:00 13.9 17 Este 32 Este 0 -- -- 68
2018-11-13 13:00:00 12.6 22 Sudeste 31 Sudeste 0 -- -- 76
2018-11-13 12:00:00 12.1 21 Sudeste 31 Este 0 -- -- 76
2018-11-13 11:00:00 12.9 11 Sudeste 20 Este 0 -- -- 74
2018-11-13 10:00:00 10.6 14 Sudeste 19 Este 0 -- -- 81
2018-11-13 09:00:00 5.9 4 Este 13 Sudeste 0 -- -- 92
2018-11-13 08:00:00 -- 8 Sudeste 23 Sudeste 0 -- -- --
2018-11-13 07:00:00 6.4 19 Sudeste 23 Sudeste 0 -- -- 92
2018-11-13 06:00:00 7.7 16 Sudeste 23 Sur 0 -- -- 86
2018-11-13 05:00:00 5.2 9 Sudeste 17 Sur 0 -- -- 94
2018-11-13 04:00:00 -- 10 Este 15 Este 0 -- -- --
2018-11-13 03:00:00 6.1 7 Sudeste 13 Sudeste 0 -- -- 95
2018-11-13 02:00:00 7.2 8 Sudeste 12 Sudeste 0 -- -- 92
2018-11-13 01:00:00 7.5 4 Sudeste 9 Sudeste 0 -- -- 93
2018-11-13 00:00:00 -- 4 Este 8 Sudeste 0 -- -- --
2018-11-12 23:00:00 7.4 5 Sudeste 8 Sudeste 0 -- -- 93
2018-11-12 22:00:00 8 0 Calma 4 Sur 0 -- -- 91
2018-11-12 21:00:00 8.3 4 Sudeste 10 Sudeste 0 -- -- 90
2018-11-12 20:00:00 8.6 2 Sudoeste 12 Oeste 0 -- -- 88
2018-11-12 19:00:00 9 5 Oeste 19 Oeste 0 -- -- 85
2018-11-12 18:00:00 10 14 Oeste 27 Sur 0 -- -- 72
2018-11-12 17:00:00 10.5 17 Sur 36 Sur 0 -- -- 71
2018-11-12 16:00:00 10.9 14 Sur 30 Sur 0 -- -- 72
2018-11-12 15:00:00 10.6 17 Sur 27 Sur 0 -- -- 73
2018-11-12 14:00:00 10 17 Sur 33 Sur 0.2 -- -- 80
2018-11-12 13:00:00 9.8 10 Sur 25 Sur 0 -- -- 81
2018-11-12 12:00:00 9.8 13 Sur 22 Sur 0 -- -- 79
2018-11-12 11:00:00 10 13 Sur 26 Sur 0 -- -- 77
2018-11-12 10:00:00 8.8 11 Sudeste 16 Sudeste 0 -- -- 88
2018-11-12 09:00:00 8 4 Este 23 Sudoeste 0 -- -- 90
2018-11-12 08:00:00 -- 8 Sur 33 Sur 0 -- -- --
2018-11-12 07:00:00 9 22 Sur 42 Sudoeste 0 -- -- 81
2018-11-12 06:00:00 9.4 24 Sudoeste 43 Sudoeste 0 -- -- 78
2018-11-12 05:00:00 9.7 23 Sudoeste 42 Sur 0 -- -- 77
2018-11-12 04:00:00 -- 9 Sur 20 Sur 0 -- -- --
2018-11-12 03:00:00 6.5 0 Calma 27 Oeste 0 -- -- 94
2018-11-12 02:00:00 7.5 22 Oeste 33 Oeste 0 -- -- 91
2018-11-12 01:00:00 10.5 13 Sur 27 Sur 0 -- -- 75
2018-11-12 00:00:00 10.7 17 Sudoeste 37 Sur 0 -- -- 75
2018-11-11 23:00:00 11.3 14 Sur 29 Sudoeste 0 -- -- 75
2018-11-11 22:00:00 11.2 15 Sudoeste 36 Sudoeste 0 -- -- 74
2018-11-11 21:00:00 11.5 17 Sudoeste 35 Sudoeste 0 -- -- 73
2018-11-11 20:00:00 11.5 15 Sur 38 Sur 0 -- -- 75
2018-11-11 19:00:00 11.3 14 Sudoeste 30 Sudoeste 0 -- -- 77
2018-11-11 18:00:00 11 19 Sudoeste 54 Sudoeste 0 -- -- 76
2018-11-11 17:00:00 11.3 34 Sudoeste 55 Sudoeste 0 -- -- 72
2018-11-11 16:00:00 11.8 35 Sur 57 Sur 0 -- -- 74
2018-11-11 15:00:00 11.2 35 Sur 62 Sudoeste 0 -- -- 77
2018-11-11 14:00:00 10.9 21 Sur 41 Sudoeste 0 -- -- 83
2018-11-11 13:00:00 11 21 Sur 37 Sur 0.2 -- -- 83
2018-11-11 12:00:00 10.7 10 Sur 20 Sudoeste 0.2 -- -- 85
2018-11-11 11:00:00 10.2 10 Sudoeste 23 Sudoeste 1.2 -- -- 81
2018-11-11 10:00:00 10.6 14 Sudoeste 27 Sur 0 -- -- 84
2018-11-11 09:00:00 10.2 9 Sudoeste 22 Sur 0 -- -- 85
2018-11-11 08:00:00 -- 5 Sudeste 10 Oeste 0 -- -- --
2018-11-11 07:00:00 9.1 8 Oeste 10 Oeste 0 -- -- 91
2018-11-11 06:00:00 8.3 0 Calma 7 Noroeste 0 -- -- 92
2018-11-11 05:00:00 8.7 0 Calma 23 Sudoeste 0 -- -- 91
2018-11-11 04:00:00 -- 12 Sur 24 Sur 0 -- -- --
2018-11-11 03:00:00 9.2 2 Sudeste 29 Oeste 0 -- -- 86
2018-11-11 02:00:00 10 18 Oeste 30 Sudoeste 0 -- -- 82
2018-11-11 01:00:00 9.8 14 Oeste 24 Oeste 0 -- -- 81
2018-11-11 00:00:00 -- 15 Sudoeste 31 Oeste 0 -- -- --
2018-11-10 23:00:00 9.5 13 Oeste 35 Oeste 0 -- -- 93
2018-11-10 22:00:00 9.7 26 Oeste 37 Oeste 0 -- -- 91
2018-11-10 21:00:00 9.6 21 Oeste 37 Oeste 0 -- -- 93
2018-11-10 20:00:00 9.3 25 Oeste 45 Oeste 0 -- -- 94
2018-11-10 19:00:00 9.3 28 Oeste 45 Oeste 0.2 -- -- 95
2018-11-10 18:00:00 9.5 22 Oeste 53 Oeste 0 -- -- 94
2018-11-10 17:00:00 9.5 31 Oeste 56 Oeste 0.6 -- -- 93
2018-11-10 16:00:00 10.1 31 Oeste 51 Oeste 1.6 -- -- 95
2018-11-10 15:00:00 9.4 12 Sudoeste 23 Sudoeste 1.2 -- -- 92
2018-11-10 14:00:00 9.2 10 Sudoeste 21 Sudoeste 1.8 -- -- 92
2018-11-10 13:00:00 9.6 13 Sudoeste 43 Oeste 0.2 -- -- 89
2018-11-10 12:00:00 11.8 27 Oeste 58 Oeste 0 -- -- 81
2018-11-10 11:00:00 12.6 34 Oeste 56 Oeste 0 -- -- 72
2018-11-10 10:00:00 11.8 29 Oeste 67 Oeste 0.2 -- -- 77
2018-11-10 09:00:00 10.9 24 Oeste 46 Sudoeste 0 -- -- 79
2018-11-10 08:00:00 -- 19 Sur 54 Oeste 0 -- -- --
2018-11-10 07:00:00 11.1 21 Sudoeste 42 Sudoeste 0 -- -- 70
2018-11-10 06:00:00 8.3 23 Sudoeste 52 Oeste 0 -- -- 82
2018-11-10 05:00:00 11.1 25 Sudoeste 44 Oeste 0.2 -- -- 73
2018-11-10 04:00:00 -- 22 Oeste 41 Oeste 0 -- -- --
2018-11-10 03:00:00 9.7 13 Oeste 29 Oeste 0 -- -- 78
2018-11-10 02:00:00 9 19 Oeste 48 Oeste 0 -- -- 81
2018-11-10 01:00:00 8.9 28 Oeste 49 Oeste 0 -- -- 82
2018-11-10 00:00:00 8.7 28 Oeste 67 Oeste 0 -- -- 82